Umar1 — 9HA2498 — position and weather

sailwx.info

Track history (hours):
 
Tides and Currents Weather Stations Pressure Air Temp Water Temp Dewpoint Dewpoint Depression Visibility Wind Speed Wind Dir Waves Ship Positions

Umar1

Last reported at 2014-Oct-01 16:33 UTC. Time now 2014-Oct-02 10:32 UTC.
Position N 39°26' E 025°38'.

Length 100 m; draft 6.6 m.

Type: Ship (hazmat cat B). MMSI: 248751000.

Date/timePositionNaut miles runAvg speedWind from/ knotsBaromVisibWave heightAir tempDewpointWater temp
2014-Oct-01 16:33N 39°26' E 025°38'9 8.7
2014-Oct-01 15:33N 39°19' E 025°32'9 9.5
2014-Oct-01 14:33N 39°10' E 025°27'22 9.0
2014-Oct-01 12:10N 38°51' E 025°14'5 8.9
2014-Oct-01 11:33N 38°46' E 025°11'10 8.6
2014-Oct-01 10:20N 38°37' E 025°04'7 8.8
2014-Oct-01 09:32N 38°31' E 025°00'9 8.8
2014-Oct-01 08:31N 38°23' E 024°55'28 8.3
2014-Oct-01 05:08N 37°58' E 024°39'6 9.1
2014-Oct-01 04:27N 37°52' E 024°37'8 9.0
2014-Oct-01 03:33N 37°45' E 024°33'10 9.1
2014-Oct-01 02:30N 37°36' E 024°28'11 9.7
2014-Oct-01 01:21N 37°27' E 024°19'810.0
2014-Oct-01 00:33N 37°20' E 024°15'10 9.8
2014-Sep-30 23:32N 37°11' E 024°10'11 9.6
2014-Sep-30 22:24N 37°01' E 024°04'8 9.1
2014-Sep-30 21:31N 36°54' E 024°00'9 9.6
2014-Sep-30 20:33N 36°45' E 023°56'  
2014-Sep-25 17:26N 34°54' E 022°21'1011.9
2014-Sep-25 16:33N 35°01' E 022°30'1212.1
2014-Sep-25 15:34N 35°10' E 022°40'5111.6
2014-Sep-25 11:12N 35°45' E 023°25'1012.1
2014-Sep-25 10:23N 35°54' E 023°30'49 9.9
2014-Sep-25 05:26N 36°39' E 023°53'1311.3
2014-Sep-25 04:18N 36°51' E 023°59'3511.6
2014-Sep-25 01:17N 37°23' E 024°16'911.3
2014-Sep-25 00:31N 37°31' E 024°21'285 8.4
2014-Sep-23 14:31N 40°44' E 028°51'10 8.8
2014-Sep-23 13:25N 40°44' E 029°04'910.1
2014-Sep-23 12:33N 40°45' E 029°15'10 9.4
2014-Sep-23 11:29N 40°45' E 029°28'  
Track history (hours):
 
Tides and Currents Weather Stations Pressure Air Temp Water Temp Dewpoint Dewpoint Depression Visibility Wind Speed Wind Dir Waves Ship Positions

Umar1

Last reported at 2014-Oct-01 16:33 UTC. Time now 2014-Oct-02 10:32 UTC.
Position N 39°26' E 025°38'.

Length 100 m; draft 6.6 m.

Type: Ship (hazmat cat B). MMSI: 248751000.

Date/timePositionNaut miles runAvg speedWind from/ knotsBaromVisibWave heightAir tempDewpointWater temp
2014-Oct-01 16:33N 39°26' E 025°38'9 8.7
2014-Oct-01 15:33N 39°19' E 025°32'9 9.5
2014-Oct-01 14:33N 39°10' E 025°27'22 9.0
2014-Oct-01 12:10N 38°51' E 025°14'5 8.9
2014-Oct-01 11:33N 38°46' E 025°11'10 8.6
2014-Oct-01 10:20N 38°37' E 025°04'7 8.8
2014-Oct-01 09:32N 38°31' E 025°00'9 8.8
2014-Oct-01 08:31N 38°23' E 024°55'28 8.3
2014-Oct-01 05:08N 37°58' E 024°39'6 9.1
2014-Oct-01 04:27N 37°52' E 024°37'8 9.0
2014-Oct-01 03:33N 37°45' E 024°33'10 9.1
2014-Oct-01 02:30N 37°36' E 024°28'11 9.7
2014-Oct-01 01:21N 37°27' E 024°19'810.0
2014-Oct-01 00:33N 37°20' E 024°15'10 9.8
2014-Sep-30 23:32N 37°11' E 024°10'11 9.6
2014-Sep-30 22:24N 37°01' E 024°04'8 9.1
2014-Sep-30 21:31N 36°54' E 024°00'9 9.6
2014-Sep-30 20:33N 36°45' E 023°56'  
2014-Sep-25 17:26N 34°54' E 022°21'1011.9
2014-Sep-25 16:33N 35°01' E 022°30'1212.1
2014-Sep-25 15:34N 35°10' E 022°40'5111.6
2014-Sep-25 11:12N 35°45' E 023°25'1012.1
2014-Sep-25 10:23N 35°54' E 023°30'49 9.9
2014-Sep-25 05:26N 36°39' E 023°53'1311.3
2014-Sep-25 04:18N 36°51' E 023°59'3511.6
2014-Sep-25 01:17N 37°23' E 024°16'911.3
2014-Sep-25 00:31N 37°31' E 024°21'285 8.4
2014-Sep-23 14:31N 40°44' E 028°51'10 8.8
2014-Sep-23 13:25N 40°44' E 029°04'910.1
2014-Sep-23 12:33N 40°45' E 029°15'10 9.4
2014-Sep-23 11:29N 40°45' E 029°28'  

Dump ship's entire track history